sensor_id;sensor_type;location;lat;lon;timestamp;P1;durP1;ratioP1;P2;durP2;ratioP2
52530;SDS011;38441;52.894;6.040;2023-02-15T00:01:14;20.65;;;14.98;;
52530;SDS011;38441;52.894;6.040;2023-02-15T00:03:40;20.25;;;15.43;;
52530;SDS011;38441;52.894;6.040;2023-02-15T00:06:06;29.85;;;19.80;;
52530;SDS011;38441;52.894;6.040;2023-02-15T00:08:32;30.33;;;18.95;;
52530;SDS011;38441;52.894;6.040;2023-02-15T00:13:31;27.05;;;18.33;;
52530;SDS011;38441;52.894;6.040;2023-02-15T00:16:03;27.63;;;17.65;;
52530;SDS011;38441;52.894;6.040;2023-02-15T00:18:31;24.55;;;17.05;;
52530;SDS011;38441;52.894;6.040;2023-02-15T00:20:57;29.55;;;19.02;;
52530;SDS011;38441;52.894;6.040;2023-02-15T00:23:24;42.28;;;23.80;;
52530;SDS011;38441;52.894;6.040;2023-02-15T00:25:50;50.80;;;28.25;;
52530;SDS011;38441;52.894;6.040;2023-02-15T00:28:16;63.78;;;31.02;;
52530;SDS011;38441;52.894;6.040;2023-02-15T00:30:42;70.55;;;35.45;;
52530;SDS011;38441;52.894;6.040;2023-02-15T00:33:07;81.45;;;38.70;;
52530;SDS011;38441;52.894;6.040;2023-02-15T00:35:34;101.60;;;44.67;;
52530;SDS011;38441;52.894;6.040;2023-02-15T00:37:59;84.43;;;39.60;;
52530;SDS011;38441;52.894;6.040;2023-02-15T00:40:25;67.93;;;34.22;;
52530;SDS011;38441;52.894;6.040;2023-02-15T00:42:51;56.25;;;30.48;;
52530;SDS011;38441;52.894;6.040;2023-02-15T00:45:17;55.53;;;28.90;;
52530;SDS011;38441;52.894;6.040;2023-02-15T00:47:44;45.08;;;25.13;;
52530;SDS011;38441;52.894;6.040;2023-02-15T00:50:10;33.40;;;20.63;;
52530;SDS011;38441;52.894;6.040;2023-02-15T00:52:36;32.88;;;20.25;;
52530;SDS011;38441;52.894;6.040;2023-02-15T00:55:02;31.30;;;19.67;;
52530;SDS011;38441;52.894;6.040;2023-02-15T00:57:28;31.95;;;19.40;;
52530;SDS011;38441;52.894;6.040;2023-02-15T00:59:53;32.78;;;20.10;;
52530;SDS011;38441;52.894;6.040;2023-02-15T01:02:19;50.40;;;24.55;;
52530;SDS011;38441;52.894;6.040;2023-02-15T01:04:46;52.17;;;27.92;;
52530;SDS011;38441;52.894;6.040;2023-02-15T01:07:12;42.33;;;24.40;;
52530;SDS011;38441;52.894;6.040;2023-02-15T01:09:38;48.15;;;27.40;;
52530;SDS011;38441;52.894;6.040;2023-02-15T01:12:04;57.63;;;30.90;;
52530;SDS011;38441;52.894;6.040;2023-02-15T01:14:30;66.47;;;34.70;;
52530;SDS011;38441;52.894;6.040;2023-02-15T01:16:56;71.45;;;36.65;;
52530;SDS011;38441;52.894;6.040;2023-02-15T01:19:22;63.88;;;35.03;;
52530;SDS011;38441;52.894;6.040;2023-02-15T01:21:48;52.97;;;30.02;;
52530;SDS011;38441;52.894;6.040;2023-02-15T01:24:14;41.03;;;25.58;;
52530;SDS011;38441;52.894;6.040;2023-02-15T01:26:40;31.92;;;22.05;;
52530;SDS011;38441;52.894;6.040;2023-02-15T01:29:06;28.92;;;19.00;;
52530;SDS011;38441;52.894;6.040;2023-02-15T01:31:32;28.52;;;19.40;;
52530;SDS011;38441;52.894;6.040;2023-02-15T01:33:58;25.15;;;16.95;;
52530;SDS011;38441;52.894;6.040;2023-02-15T01:36:24;22.83;;;15.82;;
52530;SDS011;38441;52.894;6.040;2023-02-15T01:38:50;23.63;;;17.05;;
52530;SDS011;38441;52.894;6.040;2023-02-15T01:41:16;22.75;;;17.08;;
52530;SDS011;38441;52.894;6.040;2023-02-15T01:43:46;22.35;;;17.27;;
52530;SDS011;38441;52.894;6.040;2023-02-15T01:46:17;18.67;;;14.90;;
52530;SDS011;38441;52.894;6.040;2023-02-15T01:49:00;19.75;;;15.18;;
52530;SDS011;38441;52.894;6.040;2023-02-15T01:51:30;19.17;;;14.55;;
52530;SDS011;38441;52.894;6.040;2023-02-15T01:54:01;18.25;;;14.63;;
52530;SDS011;38441;52.894;6.040;2023-02-15T01:56:33;17.48;;;14.25;;
52530;SDS011;38441;52.894;6.040;2023-02-15T01:59:02;17.17;;;14.07;;
52530;SDS011;38441;52.894;6.040;2023-02-15T02:01:31;17.23;;;14.38;;
52530;SDS011;38441;52.894;6.040;2023-02-15T02:06:49;17.83;;;14.15;;
52530;SDS011;38441;52.894;6.040;2023-02-15T02:09:16;18.80;;;14.27;;
52530;SDS011;38441;52.894;6.040;2023-02-15T02:11:42;18.33;;;15.15;;
52530;SDS011;38441;52.894;6.040;2023-02-15T02:14:11;22.35;;;16.38;;
52530;SDS011;38441;52.894;6.040;2023-02-15T02:16:57;22.63;;;16.80;;
52530;SDS011;38441;52.894;6.040;2023-02-15T02:27:18;18.88;;;15.55;;
52530;SDS011;38441;52.894;6.040;2023-02-15T02:30:06;19.98;;;15.43;;
52530;SDS011;38441;52.894;6.040;2023-02-15T02:35:19;19.75;;;15.15;;
52530;SDS011;38441;52.894;6.040;2023-02-15T02:38:02;20.33;;;15.48;;
52530;SDS011;38441;52.894;6.040;2023-02-15T02:42:56;18.70;;;14.43;;
52530;SDS011;38441;52.894;6.040;2023-02-15T02:45:40;20.15;;;15.65;;
52530;SDS011;38441;52.894;6.040;2023-02-15T02:48:08;18.92;;;14.85;;
52530;SDS011;38441;52.894;6.040;2023-02-15T02:50:39;16.80;;;14.50;;
52530;SDS011;38441;52.894;6.040;2023-02-15T02:53:05;18.85;;;13.95;;
52530;SDS011;38441;52.894;6.040;2023-02-15T02:55:36;15.98;;;13.98;;
52530;SDS011;38441;52.894;6.040;2023-02-15T02:58:05;19.10;;;14.73;;
52530;SDS011;38441;52.894;6.040;2023-02-15T03:00:32;18.02;;;14.77;;
52530;SDS011;38441;52.894;6.040;2023-02-15T03:03:03;19.48;;;14.93;;
52530;SDS011;38441;52.894;6.040;2023-02-15T03:05:37;18.92;;;14.63;;
52530;SDS011;38441;52.894;6.040;2023-02-15T03:08:06;18.50;;;15.07;;
52530;SDS011;38441;52.894;6.040;2023-02-15T03:10:35;18.40;;;15.80;;
52530;SDS011;38441;52.894;6.040;2023-02-15T03:13:02;21.25;;;16.25;;
52530;SDS011;38441;52.894;6.040;2023-02-15T03:15:29;19.65;;;15.20;;
52530;SDS011;38441;52.894;6.040;2023-02-15T03:18:18;19.58;;;15.13;;
52530;SDS011;38441;52.894;6.040;2023-02-15T03:20:47;19.05;;;15.35;;
52530;SDS011;38441;52.894;6.040;2023-02-15T03:23:16;20.88;;;15.70;;
52530;SDS011;38441;52.894;6.040;2023-02-15T03:25:46;21.38;;;16.45;;
52530;SDS011;38441;52.894;6.040;2023-02-15T03:28:18;23.20;;;17.50;;
52530;SDS011;38441;52.894;6.040;2023-02-15T03:30:48;21.38;;;16.50;;
52530;SDS011;38441;52.894;6.040;2023-02-15T03:33:17;23.13;;;16.38;;
52530;SDS011;38441;52.894;6.040;2023-02-15T03:35:47;23.40;;;18.02;;
52530;SDS011;38441;52.894;6.040;2023-02-15T03:38:25;22.65;;;16.10;;
52530;SDS011;38441;52.894;6.040;2023-02-15T03:40:58;22.90;;;16.70;;
52530;SDS011;38441;52.894;6.040;2023-02-15T03:43:53;24.60;;;17.85;;
52530;SDS011;38441;52.894;6.040;2023-02-15T03:48:55;27.00;;;18.40;;
52530;SDS011;38441;52.894;6.040;2023-02-15T03:51:25;25.75;;;17.13;;
52530;SDS011;38441;52.894;6.040;2023-02-15T03:54:02;26.73;;;18.95;;
52530;SDS011;38441;52.894;6.040;2023-02-15T03:56:37;25.77;;;17.95;;
52530;SDS011;38441;52.894;6.040;2023-02-15T03:59:05;26.48;;;18.52;;
52530;SDS011;38441;52.894;6.040;2023-02-15T04:01:54;25.15;;;18.02;;
52530;SDS011;38441;52.894;6.040;2023-02-15T04:04:35;28.15;;;17.98;;
52530;SDS011;38441;52.894;6.040;2023-02-15T04:07:03;26.73;;;18.65;;
52530;SDS011;38441;52.894;6.040;2023-02-15T04:09:32;25.05;;;18.10;;
52530;SDS011;38441;52.894;6.040;2023-02-15T04:12:17;27.33;;;18.52;;
52530;SDS011;38441;52.894;6.040;2023-02-15T04:14:43;24.77;;;18.27;;
52530;SDS011;38441;52.894;6.040;2023-02-15T04:17:27;26.77;;;18.48;;
52530;SDS011;38441;52.894;6.040;2023-02-15T04:19:53;24.92;;;17.27;;
52530;SDS011;38441;52.894;6.040;2023-02-15T04:22:37;24.52;;;17.83;;
52530;SDS011;38441;52.894;6.040;2023-02-15T04:25:22;24.00;;;18.13;;
52530;SDS011;38441;52.894;6.040;2023-02-15T04:27:49;27.95;;;19.30;;
52530;SDS011;38441;52.894;6.040;2023-02-15T04:30:16;34.22;;;21.73;;
52530;SDS011;38441;52.894;6.040;2023-02-15T04:32:43;29.75;;;20.83;;
52530;SDS011;38441;52.894;6.040;2023-02-15T04:35:09;38.03;;;23.40;;
52530;SDS011;38441;52.894;6.040;2023-02-15T04:37:36;32.53;;;21.15;;
52530;SDS011;38441;52.894;6.040;2023-02-15T04:40:03;32.92;;;22.38;;
52530;SDS011;38441;52.894;6.040;2023-02-15T04:42:29;34.15;;;22.45;;
52530;SDS011;38441;52.894;6.040;2023-02-15T04:44:55;33.80;;;21.58;;
52530;SDS011;38441;52.894;6.040;2023-02-15T04:47:21;32.88;;;21.30;;
52530;SDS011;38441;52.894;6.040;2023-02-15T04:49:47;31.92;;;21.95;;
52530;SDS011;38441;52.894;6.040;2023-02-15T04:52:13;28.73;;;20.30;;
52530;SDS011;38441;52.894;6.040;2023-02-15T04:54:39;29.38;;;21.17;;
52530;SDS011;38441;52.894;6.040;2023-02-15T04:57:05;27.70;;;19.38;;
52530;SDS011;38441;52.894;6.040;2023-02-15T04:59:31;28.27;;;20.27;;
52530;SDS011;38441;52.894;6.040;2023-02-15T05:01:57;32.50;;;23.00;;
52530;SDS011;38441;52.894;6.040;2023-02-15T05:04:23;35.10;;;23.42;;
52530;SDS011;38441;52.894;6.040;2023-02-15T05:06:49;35.35;;;23.48;;
52530;SDS011;38441;52.894;6.040;2023-02-15T05:09:15;36.08;;;22.67;;
52530;SDS011;38441;52.894;6.040;2023-02-15T05:11:41;34.20;;;23.13;;
52530;SDS011;38441;52.894;6.040;2023-02-15T05:14:07;37.42;;;23.20;;
52530;SDS011;38441;52.894;6.040;2023-02-15T05:16:33;34.65;;;23.45;;
52530;SDS011;38441;52.894;6.040;2023-02-15T05:18:59;36.88;;;22.63;;
52530;SDS011;38441;52.894;6.040;2023-02-15T05:21:25;33.65;;;21.80;;
52530;SDS011;38441;52.894;6.040;2023-02-15T05:23:51;31.10;;;20.88;;
52530;SDS011;38441;52.894;6.040;2023-02-15T05:26:18;31.08;;;21.48;;
52530;SDS011;38441;52.894;6.040;2023-02-15T05:29:04;32.42;;;21.75;;
52530;SDS011;38441;52.894;6.040;2023-02-15T05:31:31;33.60;;;22.20;;
52530;SDS011;38441;52.894;6.040;2023-02-15T05:33:57;31.38;;;20.67;;
52530;SDS011;38441;52.894;6.040;2023-02-15T05:36:23;31.95;;;21.60;;
52530;SDS011;38441;52.894;6.040;2023-02-15T05:38:49;31.60;;;20.55;;
52530;SDS011;38441;52.894;6.040;2023-02-15T05:41:15;31.67;;;21.08;;
52530;SDS011;38441;52.894;6.040;2023-02-15T05:43:41;30.98;;;20.90;;
52530;SDS011;38441;52.894;6.040;2023-02-15T05:46:08;33.38;;;21.85;;
52530;SDS011;38441;52.894;6.040;2023-02-15T05:48:34;32.58;;;21.33;;
52530;SDS011;38441;52.894;6.040;2023-02-15T05:51:04;30.02;;;20.42;;
52530;SDS011;38441;52.894;6.040;2023-02-15T05:53:30;32.05;;;21.85;;
52530;SDS011;38441;52.894;6.040;2023-02-15T05:55:57;33.50;;;22.75;;
52530;SDS011;38441;52.894;6.040;2023-02-15T05:58:28;33.67;;;22.67;;
52530;SDS011;38441;52.894;6.040;2023-02-15T06:00:54;32.83;;;22.58;;
52530;SDS011;38441;52.894;6.040;2023-02-15T06:03:21;32.60;;;21.50;;
52530;SDS011;38441;52.894;6.040;2023-02-15T06:05:47;35.67;;;23.08;;
52530;SDS011;38441;52.894;6.040;2023-02-15T06:08:13;37.28;;;23.70;;
52530;SDS011;38441;52.894;6.040;2023-02-15T06:10:39;32.33;;;21.95;;
52530;SDS011;38441;52.894;6.040;2023-02-15T06:13:05;37.55;;;23.58;;
52530;SDS011;38441;52.894;6.040;2023-02-15T06:15:31;38.88;;;23.70;;
52530;SDS011;38441;52.894;6.040;2023-02-15T06:17:57;39.55;;;24.42;;
52530;SDS011;38441;52.894;6.040;2023-02-15T06:20:23;47.97;;;24.35;;
52530;SDS011;38441;52.894;6.040;2023-02-15T06:22:50;41.10;;;22.90;;
52530;SDS011;38441;52.894;6.040;2023-02-15T06:25:16;36.15;;;23.08;;
52530;SDS011;38441;52.894;6.040;2023-02-15T06:27:42;34.55;;;22.23;;
52530;SDS011;38441;52.894;6.040;2023-02-15T06:30:08;34.72;;;22.27;;
52530;SDS011;38441;52.894;6.040;2023-02-15T06:32:34;39.05;;;22.95;;
52530;SDS011;38441;52.894;6.040;2023-02-15T06:35:00;35.45;;;22.15;;
52530;SDS011;38441;52.894;6.040;2023-02-15T06:37:26;32.72;;;21.05;;
52530;SDS011;38441;52.894;6.040;2023-02-15T06:39:52;32.45;;;20.92;;
52530;SDS011;38441;52.894;6.040;2023-02-15T06:42:18;33.72;;;20.23;;
52530;SDS011;38441;52.894;6.040;2023-02-15T06:44:45;32.92;;;20.38;;
52530;SDS011;38441;52.894;6.040;2023-02-15T06:49:58;31.35;;;18.75;;
52530;SDS011;38441;52.894;6.040;2023-02-15T06:52:25;29.40;;;19.25;;
52530;SDS011;38441;52.894;6.040;2023-02-15T06:54:51;36.88;;;20.63;;
52530;SDS011;38441;52.894;6.040;2023-02-15T06:57:17;34.20;;;21.00;;
52530;SDS011;38441;52.894;6.040;2023-02-15T06:59:43;33.13;;;19.58;;
52530;SDS011;38441;52.894;6.040;2023-02-15T07:02:10;33.28;;;20.13;;
52530;SDS011;38441;52.894;6.040;2023-02-15T07:04:36;31.75;;;19.55;;
52530;SDS011;38441;52.894;6.040;2023-02-15T07:07:03;29.50;;;20.58;;
52530;SDS011;38441;52.894;6.040;2023-02-15T07:09:29;28.95;;;19.50;;
52530;SDS011;38441;52.894;6.040;2023-02-15T07:11:55;30.52;;;19.50;;
52530;SDS011;38441;52.894;6.040;2023-02-15T07:14:40;30.73;;;19.55;;
52530;SDS011;38441;52.894;6.040;2023-02-15T07:17:06;30.00;;;19.50;;
52530;SDS011;38441;52.894;6.040;2023-02-15T07:19:32;29.15;;;19.27;;
52530;SDS011;38441;52.894;6.040;2023-02-15T07:21:58;31.60;;;19.52;;
52530;SDS011;38441;52.894;6.040;2023-02-15T07:24:24;29.58;;;18.42;;
52530;SDS011;38441;52.894;6.040;2023-02-15T07:26:51;30.45;;;19.38;;
52530;SDS011;38441;52.894;6.040;2023-02-15T07:29:17;34.40;;;19.50;;
52530;SDS011;38441;52.894;6.040;2023-02-15T07:31:43;33.55;;;19.35;;
52530;SDS011;38441;52.894;6.040;2023-02-15T07:34:10;33.40;;;20.80;;
52530;SDS011;38441;52.894;6.040;2023-02-15T07:36:36;30.83;;;19.75;;
52530;SDS011;38441;52.894;6.040;2023-02-15T07:39:02;35.67;;;21.10;;
52530;SDS011;38441;52.894;6.040;2023-02-15T07:41:28;31.38;;;19.38;;
52530;SDS011;38441;52.894;6.040;2023-02-15T07:43:54;33.00;;;20.05;;
52530;SDS011;38441;52.894;6.040;2023-02-15T07:46:20;34.30;;;20.35;;
52530;SDS011;38441;52.894;6.040;2023-02-15T07:48:46;32.28;;;20.08;;
52530;SDS011;38441;52.894;6.040;2023-02-15T07:51:12;34.05;;;19.77;;
52530;SDS011;38441;52.894;6.040;2023-02-15T07:53:39;34.20;;;21.05;;
52530;SDS011;38441;52.894;6.040;2023-02-15T07:56:07;37.67;;;22.90;;
52530;SDS011;38441;52.894;6.040;2023-02-15T07:58:35;37.25;;;21.15;;
52530;SDS011;38441;52.894;6.040;2023-02-15T08:01:21;35.17;;;21.95;;
52530;SDS011;38441;52.894;6.040;2023-02-15T08:03:49;40.42;;;24.13;;
52530;SDS011;38441;52.894;6.040;2023-02-15T08:06:15;40.53;;;23.35;;
52530;SDS011;38441;52.894;6.040;2023-02-15T08:08:41;35.15;;;22.10;;
52530;SDS011;38441;52.894;6.040;2023-02-15T08:14:11;41.95;;;23.63;;
52530;SDS011;38441;52.894;6.040;2023-02-15T08:21:40;41.53;;;24.27;;
52530;SDS011;38441;52.894;6.040;2023-02-15T08:24:07;42.25;;;24.13;;
52530;SDS011;38441;52.894;6.040;2023-02-15T08:26:33;43.03;;;25.58;;
52530;SDS011;38441;52.894;6.040;2023-02-15T08:28:59;37.25;;;24.60;;
52530;SDS011;38441;52.894;6.040;2023-02-15T08:31:26;46.70;;;27.00;;
52530;SDS011;38441;52.894;6.040;2023-02-15T08:33:53;39.63;;;24.50;;
52530;SDS011;38441;52.894;6.040;2023-02-15T08:36:20;44.80;;;26.08;;
52530;SDS011;38441;52.894;6.040;2023-02-15T08:38:48;43.17;;;28.02;;
52530;SDS011;38441;52.894;6.040;2023-02-15T08:41:16;51.67;;;29.17;;
52530;SDS011;38441;52.894;6.040;2023-02-15T08:43:43;53.47;;;32.20;;
52530;SDS011;38441;52.894;6.040;2023-02-15T08:46:10;55.28;;;29.83;;
52530;SDS011;38441;52.894;6.040;2023-02-15T08:48:37;55.38;;;32.75;;
52530;SDS011;38441;52.894;6.040;2023-02-15T08:51:13;59.58;;;30.20;;
52530;SDS011;38441;52.894;6.040;2023-02-15T08:53:41;50.17;;;29.60;;
52530;SDS011;38441;52.894;6.040;2023-02-15T08:56:09;52.25;;;29.92;;
52530;SDS011;38441;52.894;6.040;2023-02-15T08:58:36;55.78;;;31.85;;
52530;SDS011;38441;52.894;6.040;2023-02-15T09:01:07;52.45;;;29.75;;
52530;SDS011;38441;52.894;6.040;2023-02-15T09:03:37;55.65;;;31.52;;
52530;SDS011;38441;52.894;6.040;2023-02-15T09:06:03;53.88;;;31.10;;
52530;SDS011;38441;52.894;6.040;2023-02-15T09:08:30;50.45;;;30.85;;
52530;SDS011;38441;52.894;6.040;2023-02-15T09:11:06;51.40;;;30.58;;
52530;SDS011;38441;52.894;6.040;2023-02-15T09:13:34;52.13;;;30.17;;
52530;SDS011;38441;52.894;6.040;2023-02-15T09:16:01;45.15;;;28.60;;
52530;SDS011;38441;52.894;6.040;2023-02-15T09:18:29;51.00;;;29.85;;
52530;SDS011;38441;52.894;6.040;2023-02-15T09:20:57;49.47;;;28.70;;
52530;SDS011;38441;52.894;6.040;2023-02-15T09:23:35;49.03;;;29.92;;
52530;SDS011;38441;52.894;6.040;2023-02-15T09:26:06;51.85;;;30.60;;
52530;SDS011;38441;52.894;6.040;2023-02-15T09:28:33;55.45;;;30.80;;
52530;SDS011;38441;52.894;6.040;2023-02-15T09:31:06;51.20;;;30.65;;
52530;SDS011;38441;52.894;6.040;2023-02-15T09:33:36;52.03;;;30.27;;
52530;SDS011;38441;52.894;6.040;2023-02-15T09:36:04;55.60;;;31.95;;
52530;SDS011;38441;52.894;6.040;2023-02-15T09:38:31;58.75;;;32.45;;
52530;SDS011;38441;52.894;6.040;2023-02-15T09:43:38;57.80;;;33.13;;
52530;SDS011;38441;52.894;6.040;2023-02-15T09:46:16;56.08;;;33.00;;
52530;SDS011;38441;52.894;6.040;2023-02-15T09:48:52;55.85;;;31.35;;
52530;SDS011;38441;52.894;6.040;2023-02-15T09:51:44;58.17;;;33.40;;
52530;SDS011;38441;52.894;6.040;2023-02-15T09:54:33;57.78;;;33.00;;
52530;SDS011;38441;52.894;6.040;2023-02-15T09:57:14;59.80;;;33.75;;
52530;SDS011;38441;52.894;6.040;2023-02-15T10:00:06;60.60;;;34.55;;
52530;SDS011;38441;52.894;6.040;2023-02-15T10:27:46;53.05;;;29.67;;
52530;SDS011;38441;52.894;6.040;2023-02-15T10:30:14;52.92;;;31.23;;
52530;SDS011;38441;52.894;6.040;2023-02-15T10:33:25;48.13;;;28.67;;
52530;SDS011;38441;52.894;6.040;2023-02-15T10:38:45;50.13;;;30.45;;
52530;SDS011;38441;52.894;6.040;2023-02-15T10:44:19;49.78;;;31.42;;
52530;SDS011;38441;52.894;6.040;2023-02-15T10:52:46;48.03;;;30.05;;
52530;SDS011;38441;52.894;6.040;2023-02-15T11:00:54;50.67;;;30.92;;
52530;SDS011;38441;52.894;6.040;2023-02-15T11:06:14;52.67;;;33.08;;
52530;SDS011;38441;52.894;6.040;2023-02-15T11:08:44;51.15;;;30.35;;
52530;SDS011;38441;52.894;6.040;2023-02-15T11:11:36;53.40;;;30.92;;
52530;SDS011;38441;52.894;6.040;2023-02-15T11:14:08;46.53;;;29.58;;
52530;SDS011;38441;52.894;6.040;2023-02-15T11:16:55;48.90;;;30.83;;
52530;SDS011;38441;52.894;6.040;2023-02-15T11:19:33;49.25;;;31.00;;
52530;SDS011;38441;52.894;6.040;2023-02-15T11:22:03;46.95;;;29.90;;
52530;SDS011;38441;52.894;6.040;2023-02-15T11:24:31;53.40;;;31.63;;
52530;SDS011;38441;52.894;6.040;2023-02-15T11:27:05;52.27;;;30.50;;
52530;SDS011;38441;52.894;6.040;2023-02-15T11:29:48;48.53;;;30.13;;
52530;SDS011;38441;52.894;6.040;2023-02-15T11:32:27;53.75;;;31.95;;
52530;SDS011;38441;52.894;6.040;2023-02-15T11:35:00;45.90;;;29.38;;
52530;SDS011;38441;52.894;6.040;2023-02-15T11:43:10;46.45;;;29.08;;
52530;SDS011;38441;52.894;6.040;2023-02-15T11:45:41;50.25;;;30.88;;
52530;SDS011;38441;52.894;6.040;2023-02-15T11:48:10;46.72;;;29.48;;
52530;SDS011;38441;52.894;6.040;2023-02-15T11:50:37;52.60;;;31.08;;
52530;SDS011;38441;52.894;6.040;2023-02-15T11:53:04;51.15;;;30.20;;
52530;SDS011;38441;52.894;6.040;2023-02-15T11:58:03;57.38;;;31.33;;
52530;SDS011;38441;52.894;6.040;2023-02-15T12:00:46;54.70;;;31.73;;
52530;SDS011;38441;52.894;6.040;2023-02-15T12:03:27;48.88;;;30.38;;
52530;SDS011;38441;52.894;6.040;2023-02-15T12:06:01;52.92;;;31.15;;
52530;SDS011;38441;52.894;6.040;2023-02-15T12:08:39;45.80;;;30.23;;
52530;SDS011;38441;52.894;6.040;2023-02-15T12:11:13;58.10;;;32.83;;
52530;SDS011;38441;52.894;6.040;2023-02-15T12:13:58;47.88;;;29.48;;
52530;SDS011;38441;52.894;6.040;2023-02-15T12:16:26;47.40;;;30.33;;
52530;SDS011;38441;52.894;6.040;2023-02-15T12:18:55;52.38;;;31.27;;
52530;SDS011;38441;52.894;6.040;2023-02-15T12:23:58;48.33;;;30.85;;
52530;SDS011;38441;52.894;6.040;2023-02-15T12:26:30;50.05;;;27.30;;
52530;SDS011;38441;52.894;6.040;2023-02-15T12:28:59;43.55;;;27.05;;
52530;SDS011;38441;52.894;6.040;2023-02-15T12:31:33;45.97;;;28.00;;
52530;SDS011;38441;52.894;6.040;2023-02-15T12:36:55;44.13;;;27.63;;
52530;SDS011;38441;52.894;6.040;2023-02-15T12:39:26;45.75;;;28.02;;
52530;SDS011;38441;52.894;6.040;2023-02-15T12:41:57;42.88;;;25.98;;
52530;SDS011;38441;52.894;6.040;2023-02-15T12:44:32;43.70;;;27.55;;
52530;SDS011;38441;52.894;6.040;2023-02-15T12:47:00;45.55;;;27.80;;
52530;SDS011;38441;52.894;6.040;2023-02-15T12:49:32;44.83;;;26.70;;
52530;SDS011;38441;52.894;6.040;2023-02-15T12:52:06;46.78;;;29.02;;
52530;SDS011;38441;52.894;6.040;2023-02-15T12:54:49;46.33;;;28.05;;
52530;SDS011;38441;52.894;6.040;2023-02-15T12:57:26;44.38;;;28.08;;
52530;SDS011;38441;52.894;6.040;2023-02-15T12:59:55;43.05;;;26.58;;
52530;SDS011;38441;52.894;6.040;2023-02-15T13:02:27;41.70;;;25.90;;
52530;SDS011;38441;52.894;6.040;2023-02-15T13:04:53;41.93;;;24.53;;
52530;SDS011;38441;52.894;6.040;2023-02-15T13:07:20;37.65;;;24.88;;
52530;SDS011;38441;52.894;6.040;2023-02-15T13:09:46;37.30;;;25.23;;
52530;SDS011;38441;52.894;6.040;2023-02-15T13:12:18;40.65;;;24.20;;
52530;SDS011;38441;52.894;6.040;2023-02-15T13:14:45;41.53;;;24.63;;
52530;SDS011;38441;52.894;6.040;2023-02-15T13:17:16;38.33;;;23.48;;
52530;SDS011;38441;52.894;6.040;2023-02-15T13:19:52;43.22;;;25.38;;
52530;SDS011;38441;52.894;6.040;2023-02-15T13:22:20;39.03;;;24.83;;
52530;SDS011;38441;52.894;6.040;2023-02-15T13:24:53;40.50;;;24.52;;
52530;SDS011;38441;52.894;6.040;2023-02-15T13:27:23;40.53;;;25.58;;
52530;SDS011;38441;52.894;6.040;2023-02-15T13:33:19;38.08;;;24.30;;
52530;SDS011;38441;52.894;6.040;2023-02-15T13:41:31;38.72;;;24.45;;
52530;SDS011;38441;52.894;6.040;2023-02-15T13:44:03;38.35;;;24.10;;
52530;SDS011;38441;52.894;6.040;2023-02-15T13:49:26;42.42;;;26.10;;
52530;SDS011;38441;52.894;6.040;2023-02-15T13:52:18;46.70;;;26.08;;
52530;SDS011;38441;52.894;6.040;2023-02-15T13:54:57;43.20;;;26.05;;
52530;SDS011;38441;52.894;6.040;2023-02-15T13:57:52;38.28;;;24.33;;
52530;SDS011;38441;52.894;6.040;2023-02-15T14:09:24;39.47;;;25.10;;
52530;SDS011;38441;52.894;6.040;2023-02-15T14:15:20;40.47;;;24.17;;
52530;SDS011;38441;52.894;6.040;2023-02-15T14:20:56;40.85;;;25.77;;
52530;SDS011;38441;52.894;6.040;2023-02-15T14:28:55;38.65;;;24.75;;
52530;SDS011;38441;52.894;6.040;2023-02-15T14:31:34;40.28;;;24.77;;
52530;SDS011;38441;52.894;6.040;2023-02-15T14:34:19;41.75;;;25.58;;
52530;SDS011;38441;52.894;6.040;2023-02-15T14:36:51;38.95;;;24.95;;
52530;SDS011;38441;52.894;6.040;2023-02-15T14:39:26;40.00;;;25.05;;
52530;SDS011;38441;52.894;6.040;2023-02-15T14:42:22;38.25;;;24.88;;
52530;SDS011;38441;52.894;6.040;2023-02-15T14:45:15;40.58;;;25.65;;
52530;SDS011;38441;52.894;6.040;2023-02-15T14:48:15;38.83;;;24.80;;
52530;SDS011;38441;52.894;6.040;2023-02-15T14:50:46;38.80;;;24.65;;
52530;SDS011;38441;52.894;6.040;2023-02-15T15:01:26;38.38;;;23.88;;
52530;SDS011;38441;52.894;6.040;2023-02-15T15:03:58;37.30;;;25.10;;
52530;SDS011;38441;52.894;6.040;2023-02-15T15:06:29;39.65;;;25.13;;
52530;SDS011;38441;52.894;6.040;2023-02-15T15:09:05;36.70;;;25.35;;
52530;SDS011;38441;52.894;6.040;2023-02-15T15:11:39;37.25;;;24.35;;
52530;SDS011;38441;52.894;6.040;2023-02-15T15:14:10;39.72;;;25.17;;
52530;SDS011;38441;52.894;6.040;2023-02-15T15:16:55;37.97;;;24.85;;
52530;SDS011;38441;52.894;6.040;2023-02-15T15:22:19;37.70;;;24.92;;
52530;SDS011;38441;52.894;6.040;2023-02-15T15:27:56;37.75;;;25.42;;
52530;SDS011;38441;52.894;6.040;2023-02-15T15:35:36;37.92;;;24.90;;
52530;SDS011;38441;52.894;6.040;2023-02-15T15:38:40;40.60;;;25.98;;
52530;SDS011;38441;52.894;6.040;2023-02-15T15:50:00;41.15;;;26.67;;
52530;SDS011;38441;52.894;6.040;2023-02-15T15:52:26;42.03;;;26.55;;
52530;SDS011;38441;52.894;6.040;2023-02-15T15:54:57;40.40;;;25.70;;
52530;SDS011;38441;52.894;6.040;2023-02-15T15:58:12;39.35;;;26.20;;
52530;SDS011;38441;52.894;6.040;2023-02-15T16:03:04;39.40;;;25.05;;
52530;SDS011;38441;52.894;6.040;2023-02-15T16:05:34;39.80;;;27.08;;
52530;SDS011;38441;52.894;6.040;2023-02-15T16:08:01;41.38;;;26.02;;
52530;SDS011;38441;52.894;6.040;2023-02-15T16:10:28;41.60;;;26.75;;
52530;SDS011;38441;52.894;6.040;2023-02-15T16:12:57;49.67;;;28.83;;
52530;SDS011;38441;52.894;6.040;2023-02-15T16:15:24;44.63;;;27.20;;
52530;SDS011;38441;52.894;6.040;2023-02-15T16:17:56;42.90;;;26.35;;
52530;SDS011;38441;52.894;6.040;2023-02-15T16:20:29;44.80;;;29.05;;
52530;SDS011;38441;52.894;6.040;2023-02-15T16:23:14;50.75;;;29.25;;
52530;SDS011;38441;52.894;6.040;2023-02-15T16:26:06;52.17;;;29.20;;
52530;SDS011;38441;52.894;6.040;2023-02-15T16:28:54;50.22;;;28.70;;
52530;SDS011;38441;52.894;6.040;2023-02-15T16:31:20;50.63;;;30.45;;
52530;SDS011;38441;52.894;6.040;2023-02-15T16:33:52;54.97;;;32.70;;
52530;SDS011;38441;52.894;6.040;2023-02-15T16:36:28;50.00;;;31.73;;
52530;SDS011;38441;52.894;6.040;2023-02-15T16:41:26;52.42;;;34.38;;
52530;SDS011;38441;52.894;6.040;2023-02-15T16:43:54;62.55;;;36.78;;
52530;SDS011;38441;52.894;6.040;2023-02-15T16:46:32;57.67;;;34.22;;
52530;SDS011;38441;52.894;6.040;2023-02-15T16:49:02;57.33;;;33.20;;
52530;SDS011;38441;52.894;6.040;2023-02-15T16:51:33;52.90;;;32.38;;
52530;SDS011;38441;52.894;6.040;2023-02-15T16:54:04;53.88;;;30.95;;
52530;SDS011;38441;52.894;6.040;2023-02-15T16:56:33;48.22;;;29.15;;
52530;SDS011;38441;52.894;6.040;2023-02-15T16:59:00;45.05;;;28.25;;
52530;SDS011;38441;52.894;6.040;2023-02-15T17:01:28;48.65;;;27.92;;
52530;SDS011;38441;52.894;6.040;2023-02-15T17:04:25;49.35;;;28.73;;
52530;SDS011;38441;52.894;6.040;2023-02-15T17:07:04;49.17;;;29.50;;
52530;SDS011;38441;52.894;6.040;2023-02-15T17:09:37;57.65;;;32.30;;
52530;SDS011;38441;52.894;6.040;2023-02-15T17:12:35;62.70;;;35.90;;
52530;SDS011;38441;52.894;6.040;2023-02-15T17:17:54;67.47;;;38.58;;
52530;SDS011;38441;52.894;6.040;2023-02-15T17:20:25;75.07;;;43.42;;
52530;SDS011;38441;52.894;6.040;2023-02-15T17:22:51;77.13;;;43.85;;
52530;SDS011;38441;52.894;6.040;2023-02-15T17:25:23;70.10;;;38.67;;